createdAt,value
2023-01-28T00:01:04.355Z,103020.19
2023-01-28T00:03:30.790Z,103029.34
2023-01-28T00:06:05.744Z,103036.38
2023-01-28T00:08:33.775Z,103031.22
2023-01-28T00:11:04.840Z,103024.97
2023-01-28T00:13:31.969Z,103027.41
2023-01-28T00:16:02.367Z,103018.88
2023-01-28T00:18:29.259Z,103017.34
2023-01-28T00:21:00.232Z,103018.63
2023-01-28T00:23:28.427Z,103024.59
2023-01-28T00:25:55.125Z,103016.06
2023-01-28T00:28:22.248Z,103012.53
2023-01-28T00:30:48.671Z,103011.28
2023-01-28T00:33:15.127Z,103016.13
2023-01-28T00:35:43.027Z,103022.78
2023-01-28T00:38:10.557Z,103017.16
2023-01-28T00:40:37.044Z,103012.38
2023-01-28T00:43:03.481Z,103021.03
2023-01-28T00:45:29.916Z,103020.38
2023-01-28T00:47:56.310Z,103018.78
2023-01-28T00:50:22.769Z,103022.31
2023-01-28T00:52:49.209Z,103011.53
2023-01-28T00:55:15.942Z,103011.44
2023-01-28T00:57:42.592Z,103019.06
2023-01-28T01:00:09.628Z,103020.97
2023-01-28T01:02:36.104Z,103024.38
2023-01-28T01:05:02.557Z,103022.50
2023-01-28T01:07:43.449Z,103026.31
2023-01-28T01:10:14.001Z,103016.03
2023-01-28T01:12:41.120Z,103024.03
2023-01-28T01:15:10.249Z,103021.34
2023-01-28T01:17:37.802Z,103025.47
2023-01-28T01:20:09.061Z,103026.78
2023-01-28T01:22:36.638Z,103025.94
2023-01-28T01:25:04.698Z,103021.56
2023-01-28T01:27:31.828Z,103024.91
2023-01-28T01:29:58.930Z,103028.91
2023-01-28T01:32:30.605Z,103035.63
2023-01-28T01:34:57.094Z,103025.94
2023-01-28T01:37:25.203Z,103017.38
2023-01-28T01:39:51.761Z,103029.56
2023-01-28T01:42:18.900Z,103030.81
2023-01-28T01:45:12.618Z,103028.03
2023-01-28T01:47:49.209Z,103033.94
2023-01-28T01:50:22.383Z,103029.19
2023-01-28T01:52:52.917Z,103028.06
2023-01-28T01:55:24.483Z,103018.53
2023-01-28T01:57:54.204Z,103023.56
2023-01-28T02:00:20.706Z,103021.94
2023-01-28T02:02:49.343Z,103026.25
2023-01-28T02:05:19.995Z,103028.06
2023-01-28T02:07:49.997Z,103021.09
2023-01-28T02:10:17.925Z,103030.72
2023-01-28T02:12:50.186Z,103038.13
2023-01-28T02:15:22.711Z,103031.38
2023-01-28T02:17:50.566Z,103037.56
2023-01-28T02:20:26.011Z,103036.03
2023-01-28T02:23:13.440Z,103046.78
2023-01-28T02:26:14.384Z,103054.78
2023-01-28T02:29:12.525Z,103043.47
2023-01-28T02:31:52.106Z,103046.41
2023-01-28T02:34:35.726Z,103041.75
2023-01-28T02:37:27.582Z,103030.16
2023-01-28T02:40:19.895Z,103031.09
2023-01-28T02:42:46.438Z,103041.53
2023-01-28T02:45:46.218Z,103048.09
2023-01-28T02:48:14.962Z,103041.56
2023-01-28T02:51:18.033Z,103033.44
2023-01-28T02:53:59.856Z,103034.13
2023-01-28T02:56:40.713Z,103026.31
2023-01-28T02:59:30.341Z,103032.78
2023-01-28T03:02:15.468Z,103033.75
2023-01-28T03:05:03.150Z,103039.75
2023-01-28T03:07:33.772Z,103039.06
2023-01-28T03:10:04.300Z,103037.56
2023-01-28T03:12:51.144Z,103026.78
2023-01-28T03:15:50.545Z,103024.06
2023-01-28T03:18:37.682Z,103036.81
2023-01-28T03:21:26.987Z,103034.41
2023-01-28T03:24:18.028Z,103033.94
2023-01-28T03:27:21.130Z,103026.03
2023-01-28T03:30:18.068Z,103028.69
2023-01-28T03:33:03.910Z,103026.03
2023-01-28T03:35:53.060Z,103029.28
2023-01-28T03:38:23.462Z,103021.41
2023-01-28T03:41:02.818Z,103036.97
2023-01-28T03:43:30.929Z,103041.94
2023-01-28T03:45:57.506Z,103041.94
2023-01-28T03:48:26.609Z,103047.16
2023-01-28T03:50:56.044Z,103044.13
2023-01-28T03:53:24.291Z,103043.38
2023-01-28T03:55:53.367Z,103040.72
2023-01-28T03:58:22.795Z,103054.75
2023-01-28T04:00:50.812Z,103053.91
2023-01-28T04:03:19.466Z,103053.06
2023-01-28T04:06:04.009Z,103056.28
2023-01-28T04:08:52.829Z,103056.84
2023-01-28T04:11:31.433Z,103065.34
2023-01-28T04:14:00.878Z,103065.16
2023-01-28T04:16:35.739Z,103067.03
2023-01-28T04:19:02.247Z,103063.69
2023-01-28T04:21:29.093Z,103058.19
2023-01-28T04:23:55.601Z,103054.56
2023-01-28T04:26:22.620Z,103048.09
2023-01-28T04:28:49.133Z,103043.47
2023-01-28T04:31:16.244Z,103044.03
2023-01-28T04:33:54.309Z,103046.59
2023-01-28T04:36:31.638Z,103052.47
2023-01-28T04:39:11.715Z,103039.00
2023-01-28T04:41:38.141Z,103039.72
2023-01-28T04:44:13.720Z,103047.81
2023-01-28T04:47:15.469Z,103045.94
2023-01-28T04:49:50.257Z,103043.28
2023-01-28T04:52:26.917Z,103038.69
2023-01-28T04:55:04.611Z,103046.56
2023-01-28T04:57:31.163Z,103052.78
2023-01-28T04:59:58.883Z,103050.59
2023-01-28T05:02:26.759Z,103060.19
2023-01-28T05:04:53.350Z,103063.69
2023-01-28T05:07:42.763Z,103063.53
2023-01-28T05:10:10.365Z,103072.28
2023-01-28T05:12:37.088Z,103069.25
2023-01-28T05:15:07.737Z,103066.66
2023-01-28T05:17:34.305Z,103061.16
2023-01-28T05:20:01.213Z,103052.78
2023-01-28T05:22:28.762Z,103052.63
2023-01-28T05:25:10.349Z,103053.88
2023-01-28T05:27:36.799Z,103050.06
2023-01-28T05:30:03.912Z,103050.56
2023-01-28T05:32:30.424Z,103043.44
2023-01-28T05:34:56.974Z,103039.81
2023-01-28T05:37:23.471Z,103043.06
2023-01-28T05:39:53.401Z,103043.66
2023-01-28T05:42:20.824Z,103047.16
2023-01-28T05:44:48.522Z,103040.03
2023-01-28T05:47:18.272Z,103050.28
2023-01-28T05:50:06.387Z,103058.56
2023-01-28T05:53:08.655Z,103053.13
2023-01-28T05:55:36.633Z,103056.47
2023-01-28T05:58:03.095Z,103056.38
2023-01-28T06:00:29.527Z,103053.91
2023-01-28T06:02:55.954Z,103055.06
2023-01-28T06:05:23.681Z,103049.34
2023-01-28T06:07:50.385Z,103045.44
2023-01-28T06:10:19.949Z,103049.53
2023-01-28T06:12:47.115Z,103054.88
2023-01-28T06:15:32.411Z,103050.28
2023-01-28T06:18:01.732Z,103064.56
2023-01-28T06:20:32.073Z,103053.91
2023-01-28T06:22:59.895Z,103049.44
2023-01-28T06:25:26.539Z,103051.91
2023-01-28T06:27:53.707Z,103059.72
2023-01-28T06:30:20.205Z,103065.72
2023-01-28T06:32:46.671Z,103070.38
2023-01-28T06:35:13.040Z,103064.38
2023-01-28T06:37:39.732Z,103066.88
2023-01-28T06:40:06.673Z,103064.94
2023-01-28T06:42:33.032Z,103069.13
2023-01-28T06:44:59.481Z,103063.81
2023-01-28T06:47:25.877Z,103069.13
2023-01-28T06:49:52.274Z,103065.50
2023-01-28T06:52:18.732Z,103067.25
2023-01-28T06:54:45.146Z,103061.91
2023-01-28T06:57:11.616Z,103070.66
2023-01-28T06:59:38.036Z,103063.63
2023-01-28T07:02:04.476Z,103065.44
2023-01-28T07:04:31.802Z,103075.13
2023-01-28T07:06:58.243Z,103069.81
2023-01-28T07:09:24.685Z,103075.88
2023-01-28T07:11:51.109Z,103074.09
2023-01-28T07:14:17.571Z,103074.34
2023-01-28T07:16:43.953Z,103073.59
2023-01-28T07:19:10.525Z,103078.84
2023-01-28T07:21:36.924Z,103070.94
2023-01-28T07:24:05.217Z,103066.47
2023-01-28T07:26:31.780Z,103066.47
2023-01-28T07:28:58.189Z,103062.09
2023-01-28T07:31:24.624Z,103069.81
2023-01-28T07:33:51.161Z,103077.69
2023-01-28T07:36:17.590Z,103082.16
2023-01-28T07:38:44.555Z,103084.81
2023-01-28T07:41:10.963Z,103086.94
2023-01-28T07:43:37.323Z,103082.56
2023-01-28T07:46:03.876Z,103091.69
2023-01-28T07:48:30.969Z,103089.88
2023-01-28T07:51:00.195Z,103087.97
2023-01-28T07:53:26.603Z,103085.41
2023-01-28T07:55:58.085Z,103097.00
2023-01-28T07:58:24.524Z,103094.53
2023-01-28T08:00:50.965Z,103090.53
2023-01-28T08:03:17.363Z,103089.47
2023-01-28T08:05:52.871Z,103093.19
2023-01-28T08:08:19.483Z,103085.13
2023-01-28T08:10:46.553Z,103093.75
2023-01-28T08:13:14.504Z,103094.53
2023-01-28T08:15:41.343Z,103095.50
2023-01-28T08:18:09.368Z,103099.97
2023-01-28T08:20:36.494Z,103108.59
2023-01-28T08:23:14.998Z,103113.66
2023-01-28T08:25:41.728Z,103119.63
2023-01-28T08:28:08.958Z,103124.72
2023-01-28T08:30:38.030Z,103139.63
2023-01-28T08:33:06.583Z,103128.13
2023-01-28T08:35:33.875Z,103113.66
2023-01-28T08:38:02.113Z,103115.47
2023-01-28T08:40:29.167Z,103122.50
2023-01-28T08:42:56.258Z,103132.13
2023-01-28T08:45:27.630Z,103129.94
2023-01-28T08:47:57.099Z,103126.53
2023-01-28T08:50:25.258Z,103127.09
2023-01-28T08:52:56.629Z,103132.81
2023-01-28T08:55:23.773Z,103139.25
2023-01-28T08:57:50.209Z,103139.34
2023-01-28T09:00:17.789Z,103143.16
2023-01-28T09:02:44.310Z,103145.63
2023-01-28T09:05:11.536Z,103141.88
2023-01-28T09:07:38.972Z,103146.66
2023-01-28T09:10:06.184Z,103151.69
2023-01-28T09:12:33.285Z,103170.06
2023-01-28T09:14:59.716Z,103164.84
2023-01-28T09:17:26.153Z,103162.34
2023-01-28T09:19:52.562Z,103164.47
2023-01-28T09:22:19.211Z,103168.28
2023-01-28T09:24:45.655Z,103175.50
2023-01-28T09:27:12.388Z,103172.47
2023-01-28T09:29:38.807Z,103159.19
2023-01-28T09:32:07.051Z,103156.38
2023-01-28T09:34:33.916Z,103162.03
2023-01-28T09:37:00.903Z,103165.50
2023-01-28T09:39:28.456Z,103165.56
2023-01-28T09:42:05.183Z,103175.84
2023-01-28T09:44:57.405Z,103172.72
2023-01-28T09:47:44.566Z,103186.19
2023-01-28T09:50:23.125Z,103188.66
2023-01-28T09:52:53.280Z,103191.69
2023-01-28T09:55:31.250Z,103199.47
2023-01-28T09:57:57.647Z,103195.75
2023-01-28T10:00:33.365Z,103182.41
2023-01-28T10:03:37.652Z,103179.72
2023-01-28T10:06:16.302Z,103187.84
2023-01-28T10:09:04.234Z,103182.81
2023-01-28T10:11:39.592Z,103179.19
2023-01-28T10:14:23.123Z,103170.09
2023-01-28T10:17:05.701Z,103170.97
2023-01-28T10:19:40.026Z,103177.16
2023-01-28T10:22:15.733Z,103178.41
2023-01-28T10:24:51.106Z,103176.81
2023-01-28T10:27:24.343Z,103179.06
2023-01-28T10:29:52.963Z,103163.59
2023-01-28T10:32:30.376Z,103178.75
2023-01-28T10:35:03.902Z,103167.75
2023-01-28T10:37:39.995Z,103171.09
2023-01-28T10:40:13.429Z,103143.84
2023-01-28T10:42:39.978Z,103140.72
2023-01-28T10:45:21.164Z,103128.75
2023-01-28T10:47:56.089Z,103125.13
2023-01-28T10:50:26.369Z,103118.72
2023-01-28T10:53:03.837Z,103110.81
2023-01-28T10:55:47.893Z,103096.94
2023-01-28T10:58:23.839Z,103103.88
2023-01-28T11:01:07.622Z,103104.03
2023-01-28T11:03:37.024Z,103080.06
2023-01-28T11:06:03.633Z,103084.00
2023-01-28T11:08:43.502Z,103076.78
2023-01-28T11:11:15.113Z,103074.25
2023-01-28T11:13:50.651Z,103069.31
2023-01-28T11:16:18.657Z,103066.66
2023-01-28T11:18:53.991Z,103060.91
2023-01-28T11:21:24.528Z,103061.44
2023-01-28T11:23:59.087Z,103054.47
2023-01-28T11:26:29.488Z,103058.31
2023-01-28T11:28:56.149Z,103069.13
2023-01-28T11:31:24.487Z,103065.50
2023-01-28T11:33:57.647Z,103062.81
2023-01-28T11:36:30.295Z,103059.31
2023-01-28T11:39:19.791Z,103067.09
2023-01-28T11:41:47.649Z,103065.63
2023-01-28T11:44:27.596Z,103073.97
2023-01-28T11:47:16.346Z,103072.34
2023-01-28T11:50:20.522Z,103070.53
2023-01-28T11:53:07.454Z,103075.53
2023-01-28T11:55:44.886Z,103080.59
2023-01-28T11:58:24.150Z,103085.41
2023-01-28T12:01:09.064Z,103089.34
2023-01-28T12:03:55.012Z,103093.63
2023-01-28T12:06:52.552Z,103094.50
2023-01-28T12:09:43.569Z,103094.38
2023-01-28T12:12:26.128Z,103093.41
2023-01-28T12:15:00.277Z,103091.25
2023-01-28T12:17:44.896Z,103086.88
2023-01-28T12:20:28.211Z,103086.53
2023-01-28T12:23:20.065Z,103081.81
2023-01-28T12:26:23.279Z,103055.47
2023-01-28T12:29:12.094Z,103044.44
2023-01-28T12:31:56.697Z,103040.69
2023-01-28T12:34:44.818Z,103031.22
2023-01-28T12:37:37.194Z,103018.00
2023-01-28T12:40:40.388Z,103014.19
2023-01-28T12:43:24.330Z,103009.97
2023-01-28T12:46:10.796Z,103009.69
2023-01-28T12:48:45.331Z,103000.75
2023-01-28T12:51:38.983Z,103008.47
2023-01-28T12:54:19.112Z,103008.06
2023-01-28T12:56:56.377Z,103016.50
2023-01-28T12:59:29.007Z,103014.22
2023-01-28T13:02:13.502Z,103007.44
2023-01-28T13:04:59.906Z,103001.50
2023-01-28T13:07:50.745Z,102999.09
2023-01-28T13:10:43.361Z,103003.25
2023-01-28T13:13:38.278Z,103000.47
2023-01-28T13:16:07.596Z,102995.72
2023-01-28T13:18:40.194Z,102994.88
2023-01-28T13:21:12.644Z,102990.84
2023-01-28T13:23:41.204Z,102996.31
2023-01-28T13:26:12.396Z,102998.97
2023-01-28T13:28:38.889Z,102997.91
2023-01-28T13:31:17.292Z,103002.06
2023-01-28T13:34:08.512Z,103003.19
2023-01-28T13:36:46.936Z,103011.59
2023-01-28T13:39:13.354Z,103000.75
2023-01-28T13:41:48.892Z,103004.03
2023-01-28T13:44:29.125Z,103000.00
2023-01-28T13:47:21.764Z,103003.25
2023-01-28T13:49:54.897Z,102998.72
2023-01-28T13:52:28.511Z,103000.03
2023-01-28T13:55:00.367Z,103013.84
2023-01-28T13:57:59.090Z,103019.69
2023-01-28T14:00:54.914Z,103023.56
2023-01-28T14:04:02.453Z,103011.38
2023-01-28T14:06:45.004Z,103012.56
2023-01-28T14:09:35.699Z,103017.41
2023-01-28T14:12:08.925Z,103020.53
2023-01-28T14:14:41.194Z,103015.38
2023-01-28T14:17:35.794Z,103003.34
2023-01-28T14:20:03.671Z,102992.13
2023-01-28T14:22:30.088Z,102996.72
2023-01-28T14:25:01.354Z,102997.06
2023-01-28T14:27:35.230Z,103007.75
2023-01-28T14:30:34.317Z,103001.69
2023-01-28T14:33:01.582Z,103008.22
2023-01-28T14:35:34.026Z,103006.81
2023-01-28T14:38:07.883Z,103005.97
2023-01-28T14:40:39.834Z,103009.50
2023-01-28T14:43:09.284Z,103013.56
2023-01-28T14:45:50.924Z,103016.00
2023-01-28T14:48:40.984Z,103028.94
2023-01-28T14:51:20.236Z,103033.19
2023-01-28T14:53:58.922Z,103022.47
2023-01-28T14:56:55.684Z,103022.28
2023-01-28T14:59:43.752Z,103020.56
2023-01-28T15:02:18.756Z,103027.84
2023-01-28T15:04:45.285Z,103022.59
2023-01-28T15:07:26.401Z,103037.53
2023-01-28T15:10:05.031Z,103045.56
2023-01-28T15:12:37.491Z,103053.69
2023-01-28T15:15:25.979Z,103054.88
2023-01-28T15:17:53.598Z,103044.50
2023-01-28T15:20:23.440Z,103025.16
2023-01-28T15:22:51.795Z,103036.50
2023-01-28T15:25:20.802Z,103033.94
2023-01-28T15:27:49.363Z,103029.78
2023-01-28T15:30:31.417Z,103031.47
2023-01-28T15:33:02.578Z,103045.50
2023-01-28T15:35:29.095Z,103046.56
2023-01-28T15:37:55.652Z,103050.19
2023-01-28T15:40:23.203Z,103034.28
2023-01-28T15:42:50.899Z,103035.13
2023-01-28T15:45:19.842Z,103046.78
2023-01-28T15:47:48.331Z,103051.03
2023-01-28T15:50:22.573Z,103049.13
2023-01-28T15:52:50.412Z,103046.66
2023-01-28T15:55:42.069Z,103056.19
2023-01-28T15:58:19.809Z,103055.22
2023-01-28T16:00:48.193Z,103052.53
2023-01-28T16:03:22.264Z,103036.50
2023-01-28T16:06:04.306Z,103033.47
2023-01-28T16:08:42.125Z,103035.66
2023-01-28T16:11:10.158Z,103038.81
2023-01-28T16:13:42.832Z,103035.50
2023-01-28T16:16:10.311Z,103040.84
2023-01-28T16:18:48.085Z,103039.13
2023-01-28T16:21:22.532Z,103048.97
2023-01-28T16:23:54.260Z,103035.84
2023-01-28T16:26:25.281Z,103042.25
2023-01-28T16:28:51.985Z,103043.22
2023-01-28T16:31:19.439Z,103051.25
2023-01-28T16:33:46.332Z,103038.72
2023-01-28T16:36:14.515Z,103037.97
2023-01-28T16:38:41.057Z,103035.56
2023-01-28T16:41:29.591Z,103041.50
2023-01-28T16:43:56.182Z,103038.31
2023-01-28T16:46:27.575Z,103038.44
2023-01-28T16:48:53.970Z,103040.25
2023-01-28T16:51:20.846Z,103043.88
2023-01-28T16:53:49.086Z,103056.19
2023-01-28T16:56:43.987Z,103058.84
2023-01-28T16:59:11.441Z,103053.72
2023-01-28T17:01:38.294Z,103049.34
2023-01-28T17:04:11.505Z,103048.63
2023-01-28T17:06:39.271Z,103047.84
2023-01-28T17:09:05.893Z,103046.25
2023-01-28T17:11:33.327Z,103045.53
2023-01-28T17:14:00.679Z,103052.69
2023-01-28T17:16:27.571Z,103049.03
2023-01-28T17:18:54.715Z,103043.06
2023-01-28T17:21:21.372Z,103039.41
2023-01-28T17:23:47.825Z,103026.28
2023-01-28T17:26:16.107Z,103036.66
2023-01-28T17:28:42.691Z,103037.50
2023-01-28T17:31:14.170Z,103040.28
2023-01-28T17:33:41.801Z,103043.41
2023-01-28T17:36:08.952Z,103045.31
2023-01-28T17:38:35.490Z,103043.91
2023-01-28T17:41:03.390Z,103048.59
2023-01-28T17:43:29.860Z,103050.66
2023-01-28T17:45:56.318Z,103051.94
2023-01-28T17:48:22.895Z,103055.34
2023-01-28T17:50:49.357Z,103056.09
2023-01-28T17:53:15.950Z,103059.63
2023-01-28T17:55:42.368Z,103062.50
2023-01-28T17:58:08.775Z,103062.75
2023-01-28T18:00:35.178Z,103072.47
2023-01-28T18:03:01.597Z,103079.41
2023-01-28T18:05:28.093Z,103084.66
2023-01-28T18:07:54.496Z,103093.41
2023-01-28T18:10:21.273Z,103092.34
2023-01-28T18:12:47.815Z,103093.06
2023-01-28T18:15:14.746Z,103105.50
2023-01-28T18:17:41.368Z,103116.06
2023-01-28T18:20:08.547Z,103123.25
2023-01-28T18:22:34.985Z,103119.72
2023-01-28T18:25:01.372Z,103113.50
2023-01-28T18:27:27.791Z,103112.88
2023-01-28T18:29:54.267Z,103111.25
2023-01-28T18:32:20.633Z,103117.56
2023-01-28T18:34:47.047Z,103114.91
2023-01-28T18:37:13.493Z,103109.56
2023-01-28T18:39:40.017Z,103110.63
2023-01-28T18:42:07.400Z,103111.47
2023-01-28T18:44:33.881Z,103105.38
2023-01-28T18:47:00.317Z,103106.25
2023-01-28T18:49:26.714Z,103106.25
2023-01-28T18:51:53.984Z,103111.59
2023-01-28T18:54:20.467Z,103091.19
2023-01-28T18:56:48.372Z,103093.84
2023-01-28T18:59:15.506Z,103109.75
2023-01-28T19:01:42.678Z,103107.94
2023-01-28T19:04:10.363Z,103095.44
2023-01-28T19:06:36.751Z,103098.09
2023-01-28T19:09:06.472Z,103099.91
2023-01-28T19:11:33.891Z,103093.00
2023-01-28T19:14:00.568Z,103101.75
2023-01-28T19:16:27.487Z,103104.53
2023-01-28T19:18:56.035Z,103114.38
2023-01-28T19:21:23.334Z,103116.19
2023-01-28T19:23:55.311Z,103114.38
2023-01-28T19:26:22.371Z,103109.88
2023-01-28T19:28:49.523Z,103108.06
2023-01-28T19:31:18.815Z,103100.78
2023-01-28T19:33:46.157Z,103094.56
2023-01-28T19:36:13.695Z,103098.09
2023-01-28T19:38:40.880Z,103094.56
2023-01-28T19:41:07.828Z,103088.28
2023-01-28T19:43:35.433Z,103086.56
2023-01-28T19:46:04.426Z,103084.75
2023-01-28T19:48:31.862Z,103079.41
2023-01-28T19:50:58.920Z,103075.88
2023-01-28T19:53:25.430Z,103069.69
2023-01-28T19:55:52.314Z,103064.44
2023-01-28T19:58:18.988Z,103067.22
2023-01-28T20:00:45.434Z,103071.81
2023-01-28T20:03:12.737Z,103072.69
2023-01-28T20:05:39.229Z,103071.06
2023-01-28T20:08:05.919Z,103070.22
2023-01-28T20:10:32.516Z,103075.47
2023-01-28T20:12:58.898Z,103073.53
2023-01-28T20:15:25.448Z,103070.84
2023-01-28T20:17:51.920Z,103073.53
2023-01-28T20:20:18.378Z,103069.16
2023-01-28T20:22:44.886Z,103072.69
2023-01-28T20:25:11.351Z,103071.81
2023-01-28T20:27:37.756Z,103072.69
2023-01-28T20:30:04.682Z,103078.88
2023-01-28T20:32:31.198Z,103075.22
2023-01-28T20:34:57.668Z,103068.94
2023-01-28T20:37:24.169Z,103066.59
2023-01-28T20:39:50.608Z,103067.66
2023-01-28T20:42:17.052Z,103071.31
2023-01-28T20:44:43.472Z,103068.72
2023-01-28T20:47:09.909Z,103065.19
2023-01-28T20:49:36.350Z,103068.84
2023-01-28T20:52:02.763Z,103055.59
2023-01-28T20:54:29.180Z,103056.31
2023-01-28T20:56:57.215Z,103052.94
2023-01-28T20:59:24.066Z,103052.94
2023-01-28T21:01:50.739Z,103059.00
2023-01-28T21:04:17.203Z,103058.78
2023-01-28T21:06:43.625Z,103056.13
2023-01-28T21:09:10.476Z,103049.94
2023-01-28T21:11:36.841Z,103055.28
2023-01-28T21:14:03.365Z,103063.03
2023-01-28T21:16:29.941Z,103067.66
2023-01-28T21:18:56.387Z,103063.03
2023-01-28T21:21:26.215Z,103067.22
2023-01-28T21:23:58.964Z,103064.66
2023-01-28T21:26:25.930Z,103064.78
2023-01-28T21:28:52.390Z,103069.28
2023-01-28T21:31:21.844Z,103069.16
2023-01-28T21:33:50.247Z,103064.53
2023-01-28T21:36:17.354Z,103071.63
2023-01-28T21:38:44.018Z,103067.22
2023-01-28T21:41:10.815Z,103068.94
2023-01-28T21:43:37.390Z,103060.28
2023-01-28T21:46:04.278Z,103055.03
2023-01-28T21:48:30.762Z,103063.03
2023-01-28T21:51:23.369Z,103065.72
2023-01-28T21:53:49.891Z,103062.31
2023-01-28T21:56:16.349Z,103066.47
2023-01-28T21:59:01.474Z,103059.31
2023-01-28T22:01:27.924Z,103058.47
2023-01-28T22:03:54.381Z,103059.19
2023-01-28T22:06:20.756Z,103055.59
2023-01-28T22:08:47.167Z,103048.41
2023-01-28T22:11:13.710Z,103053.63
2023-01-28T22:13:40.169Z,103041.59
2023-01-28T22:16:07.048Z,103039.13
2023-01-28T22:18:33.565Z,103031.31
2023-01-28T22:21:08.268Z,103034.84
2023-01-28T22:23:35.428Z,103030.38
2023-01-28T22:26:02.190Z,103038.47
2023-01-28T22:28:29.207Z,103042.00
2023-01-28T22:31:04.974Z,103025.88
2023-01-28T22:33:31.547Z,103024.06
2023-01-28T22:35:57.911Z,103016.47
2023-01-28T22:38:24.342Z,103021.28
2023-01-28T22:40:50.794Z,103020.63
2023-01-28T22:43:18.164Z,103016.38
2023-01-28T22:45:44.763Z,103016.06
2023-01-28T22:48:11.217Z,103013.06
2023-01-28T22:50:37.747Z,103014.78
2023-01-28T22:53:04.146Z,103025.47
2023-01-28T22:55:32.086Z,103018.19
2023-01-28T22:57:58.514Z,103015.41
2023-01-28T23:00:27.906Z,103000.25
2023-01-28T23:02:54.623Z,103004.94
2023-01-28T23:05:21.145Z,103004.31
2023-01-28T23:07:47.559Z,102999.59
2023-01-28T23:10:14.695Z,103001.22
2023-01-28T23:12:41.428Z,102997.91
2023-01-28T23:15:28.085Z,102991.81
2023-01-28T23:18:12.928Z,102998.63
2023-01-28T23:20:58.948Z,102997.66
2023-01-28T23:23:44.239Z,102980.78
2023-01-28T23:26:10.627Z,102986.91
2023-01-28T23:28:37.064Z,102984.22
2023-01-28T23:31:03.582Z,102983.38
2023-01-28T23:33:30.110Z,102993.28
2023-01-28T23:35:56.551Z,102989.91
2023-01-28T23:38:22.997Z,102984.75
2023-01-28T23:40:49.358Z,102992.66
2023-01-28T23:43:15.822Z,102986.56
2023-01-28T23:45:42.300Z,102988.28
2023-01-28T23:48:08.806Z,102976.53
2023-01-28T23:50:35.884Z,102972.91
2023-01-28T23:53:02.342Z,102972.91
2023-01-28T23:55:28.791Z,102969.69
2023-01-28T23:57:55.199Z,102961.56
